Time;durP1;ratioP1;P1;durP2;ratioP2;P2;SDS_P1;SDS_P2;PMS_P1;PMS_P2;Temp;Humidity;BMP_temperature;BMP_pressure;BME280_temperature;BME280_humidity;BME280_pressure;Samples;Min_cycle;Max_cycle;Signal;HPM_P1;HPM_P2
2023/08/31 00:01:24;;;;;;;9.10;6.38;;;14.40;99.90;;;;;;5031541;28;20052;-75
2023/08/31 00:04:14;;;;;;;7.63;5.85;;;14.30;99.90;;;;;;5041567;28;20063;-75
2023/08/31 00:07:00;;;;;;;7.90;6.20;;;14.40;99.90;;;;;;5022823;28;20052;-75
2023/08/31 00:09:46;;;;;;;8.68;6.20;;;14.30;99.90;;;;;;5030475;28;20048;-75
2023/08/31 00:12:32;;;;;;;9.27;6.05;;;14.30;99.90;;;;;;5025717;28;20039;-75
2023/08/31 00:15:18;;;;;;;8.88;6.50;;;14.20;99.90;;;;;;5041885;28;20037;-75
2023/08/31 00:18:04;;;;;;;8.93;5.88;;;14.30;99.90;;;;;;5040709;28;20057;-75
2023/08/31 00:20:51;;;;;;;7.65;6.03;;;14.30;99.90;;;;;;5040403;28;20055;-74
2023/08/31 00:23:37;;;;;;;8.45;6.55;;;14.20;99.90;;;;;;5041363;28;20056;-74
2023/08/31 00:26:23;;;;;;;9.32;6.13;;;14.20;99.90;;;;;;5041363;28;20804;-75
2023/08/31 00:29:10;;;;;;;9.35;6.70;;;14.20;99.90;;;;;;5038550;28;20045;-74
2023/08/31 00:31:56;;;;;;;7.85;6.13;;;14.20;99.90;;;;;;5027219;28;20507;-75
2023/08/31 00:34:42;;;;;;;10.65;6.57;;;14.30;99.90;;;;;;5038511;28;20059;-74
2023/08/31 00:37:29;;;;;;;9.38;6.45;;;14.20;99.90;;;;;;5043513;28;20183;-75
2023/08/31 00:40:16;;;;;;;11.48;7.28;;;14.20;99.90;;;;;;5024167;28;20043;-75
2023/08/31 00:43:02;;;;;;;10.45;6.57;;;14.20;99.90;;;;;;5027635;28;20441;-74
2023/08/31 00:45:52;;;;;;;10.55;8.25;;;14.20;99.90;;;;;;5020771;28;20064;-74
2023/08/31 00:48:38;;;;;;;9.57;7.10;;;14.10;99.90;;;;;;5020571;28;20042;-75
2023/08/31 00:51:24;;;;;;;15.35;7.85;;;14.10;99.90;;;;;;5020807;28;20124;-75
2023/08/31 00:54:10;;;;;;;10.15;7.30;;;14.10;99.90;;;;;;5039737;28;20045;-75
2023/08/31 00:56:57;;;;;;;12.15;8.07;;;14.10;99.90;;;;;;5044714;28;20033;-74
2023/08/31 00:59:43;;;;;;;11.05;7.35;;;14.00;99.90;;;;;;5020766;28;20183;-74
2023/08/31 01:02:56;;;;;;;11.63;7.70;;;14.00;99.90;;;;;;5039691;28;20124;-74
2023/08/31 01:05:55;;;;;;;11.57;8.30;;;13.90;99.90;;;;;;5037150;28;20076;-75
2023/08/31 01:09:01;;;;;;;11.60;7.80;;;14.00;99.90;;;;;;5042439;28;20533;-75
2023/08/31 01:12:03;;;;;;;11.85;8.23;;;13.90;99.90;;;;;;5041044;28;20045;-74
2023/08/31 01:14:53;;;;;;;12.35;7.80;;;13.90;99.90;;;;;;5014213;28;20037;-74
2023/08/31 01:17:48;;;;;;;10.98;7.47;;;13.80;99.90;;;;;;5021726;28;20520;-74
2023/08/31 01:21:34;;;;;;;13.18;8.50;;;13.80;99.90;;;;;;5020519;28;20455;-74
2023/08/31 01:24:21;;;;;;;9.05;7.13;;;13.80;99.90;;;;;;5003016;28;20053;-75
2023/08/31 01:27:07;;;;;;;13.43;8.00;;;13.70;99.90;;;;;;5020374;28;20389;-75
2023/08/31 01:29:54;;;;;;;12.68;7.53;;;13.70;99.90;;;;;;5039508;28;20052;-74
2023/08/31 01:32:47;;;;;;;11.38;7.10;;;13.70;99.90;;;;;;5040121;28;20534;-75
2023/08/31 01:35:43;;;;;;;13.43;8.20;;;13.50;99.90;;;;;;5019896;28;20366;-74
2023/08/31 01:38:30;;;;;;;11.35;7.55;;;13.60;99.90;;;;;;5020330;28;20065;-75
2023/08/31 01:41:17;;;;;;;15.25;7.80;;;13.60;99.90;;;;;;5020448;28;20445;-76
2023/08/31 01:44:04;;;;;;;14.63;8.27;;;13.50;99.90;;;;;;5019243;28;20048;-75
2023/08/31 01:46:53;;;;;;;11.63;6.85;;;13.60;99.90;;;;;;5019328;28;20039;-74
2023/08/31 01:49:39;;;;;;;11.23;8.57;;;13.50;99.90;;;;;;5033620;28;20073;-74
2023/08/31 01:52:25;;;;;;;13.32;8.13;;;13.50;99.90;;;;;;5037840;28;20052;-74
2023/08/31 01:55:15;;;;;;;12.27;7.78;;;13.40;99.90;;;;;;5022348;28;20052;-74
2023/08/31 01:58:01;;;;;;;12.25;7.35;;;13.50;99.90;;;;;;5033292;28;20037;-74
2023/08/31 02:00:47;;;;;;;12.48;7.65;;;13.50;99.90;;;;;;5041997;28;20049;-74
2023/08/31 02:03:33;;;;;;;10.00;8.10;;;13.30;99.90;;;;;;5028426;28;20073;-75
2023/08/31 02:06:19;;;;;;;12.18;8.57;;;13.30;99.90;;;;;;5039304;28;20076;-74
2023/08/31 02:09:06;;;;;;;12.85;8.07;;;13.30;99.90;;;;;;5019645;28;20128;-76
2023/08/31 02:11:52;;;;;;;14.32;9.00;;;13.30;99.90;;;;;;5032386;28;20541;-75
2023/08/31 02:14:38;;;;;;;13.45;8.88;;;13.30;99.90;;;;;;5022201;28;20540;-75
2023/08/31 02:17:25;;;;;;;12.25;8.35;;;13.40;99.90;;;;;;5037948;28;20051;-71
2023/08/31 02:20:11;;;;;;;11.05;8.52;;;13.30;99.90;;;;;;5039912;28;20055;-72
2023/08/31 02:22:57;;;;;;;15.50;8.90;;;13.30;99.90;;;;;;5014531;28;20057;-72
2023/08/31 02:25:43;;;;;;;13.23;9.18;;;13.40;99.90;;;;;;5043386;28;20044;-71
2023/08/31 02:28:29;;;;;;;12.23;8.20;;;13.30;99.90;;;;;;5007409;28;20073;-72
2023/08/31 02:31:17;;;;;;;14.10;8.68;;;13.40;99.90;;;;;;5027935;28;20040;-72
2023/08/31 02:34:03;;;;;;;15.05;9.55;;;13.40;99.90;;;;;;5021580;28;20156;-72
2023/08/31 02:36:48;;;;;;;13.63;9.13;;;13.40;99.90;;;;;;5032112;28;20041;-72
2023/08/31 02:39:34;;;;;;;14.52;8.65;;;13.40;99.90;;;;;;5042506;28;20036;-72
2023/08/31 02:42:20;;;;;;;14.93;9.57;;;13.30;99.90;;;;;;5017843;28;20049;-72
2023/08/31 02:45:07;;;;;;;13.70;8.90;;;13.30;99.90;;;;;;5042216;28;20037;-71
2023/08/31 02:47:53;;;;;;;13.32;10.32;;;13.20;99.90;;;;;;5035802;28;20042;-72
2023/08/31 02:50:39;;;;;;;17.35;10.00;;;13.30;99.90;;;;;;5031676;28;20037;-71
2023/08/31 02:53:25;;;;;;;13.82;9.02;;;13.30;99.90;;;;;;5036513;28;20158;-72
2023/08/31 02:56:11;;;;;;;11.98;8.57;;;13.40;99.90;;;;;;5034795;28;20041;-71
2023/08/31 02:58:57;;;;;;;10.27;8.68;;;13.50;99.90;;;;;;5052459;28;20090;-72
2023/08/31 03:01:46;;;;;;;16.05;9.90;;;13.50;99.90;;;;;;5029250;28;20045;-71
2023/08/31 03:04:32;;;;;;;13.77;9.05;;;13.40;99.90;;;;;;5051267;28;20113;-72
2023/08/31 03:07:18;;;;;;;13.85;8.65;;;13.30;99.90;;;;;;5050455;28;20072;-72
2023/08/31 03:10:04;;;;;;;17.35;8.73;;;13.40;99.90;;;;;;5004648;28;20476;-73
2023/08/31 03:12:50;;;;;;;14.50;9.65;;;13.20;99.90;;;;;;5030468;28;20111;-71
2023/08/31 03:15:36;;;;;;;17.67;9.73;;;13.30;99.90;;;;;;5030153;28;20041;-72
2023/08/31 03:18:22;;;;;;;18.35;10.90;;;13.30;99.90;;;;;;5038621;28;20117;-72
2023/08/31 03:21:09;;;;;;;15.55;9.40;;;13.30;99.90;;;;;;5016984;28;20041;-72
2023/08/31 03:23:55;;;;;;;14.02;9.82;;;13.30;99.90;;;;;;5030993;28;20045;-72
2023/08/31 03:26:41;;;;;;;14.73;9.90;;;13.40;99.90;;;;;;5019762;28;20067;-74
2023/08/31 03:29:28;;;;;;;13.93;9.35;;;13.30;99.90;;;;;;5041999;28;20246;-74
2023/08/31 03:32:14;;;;;;;15.80;8.98;;;13.30;99.90;;;;;;5043846;28;20037;-74
2023/08/31 03:35:03;;;;;;;16.13;9.52;;;13.40;99.90;;;;;;5020561;28;20083;-74
2023/08/31 03:37:49;;;;;;;13.90;9.45;;;13.30;99.90;;;;;;5032411;28;20041;-74
2023/08/31 03:40:35;;;;;;;16.90;9.38;;;13.40;99.90;;;;;;5031602;28;20120;-74
2023/08/31 03:43:21;;;;;;;13.68;9.15;;;13.40;99.90;;;;;;5038431;28;20041;-74
2023/08/31 03:46:07;;;;;;;18.02;10.00;;;13.20;99.90;;;;;;5023102;28;20110;-74
2023/08/31 03:48:53;;;;;;;17.95;10.02;;;13.20;99.90;;;;;;5049086;28;20125;-76
2023/08/31 03:51:39;;;;;;;17.10;9.90;;;13.20;99.90;;;;;;5025743;28;20046;-74
2023/08/31 03:54:25;;;;;;;20.40;10.70;;;13.10;99.90;;;;;;5020035;28;20045;-74
2023/08/31 03:57:11;;;;;;;15.55;10.45;;;13.20;99.90;;;;;;5006626;28;20049;-75
2023/08/31 03:59:57;;;;;;;15.25;9.77;;;13.20;99.90;;;;;;5009606;28;20136;-75
2023/08/31 04:02:46;;;;;;;16.80;10.63;;;13.20;99.90;;;;;;5033558;28;20538;-75
2023/08/31 04:05:33;;;;;;;16.67;11.20;;;13.20;99.90;;;;;;5040731;28;20064;-75
2023/08/31 04:08:19;;;;;;;14.90;10.40;;;13.10;99.90;;;;;;5038897;28;20069;-75
2023/08/31 04:11:05;;;;;;;17.08;10.07;;;13.10;99.90;;;;;;5036404;28;20037;-75
2023/08/31 04:13:51;;;;;;;15.25;9.57;;;13.20;99.90;;;;;;5033704;28;20045;-74
2023/08/31 04:16:37;;;;;;;13.75;8.63;;;13.30;99.90;;;;;;5038779;28;20037;-75
2023/08/31 04:19:23;;;;;;;13.77;8.38;;;13.30;99.90;;;;;;5041062;28;20107;-74
2023/08/31 04:22:09;;;;;;;15.93;9.13;;;13.30;99.90;;;;;;5038066;28;20132;-74
2023/08/31 04:24:55;;;;;;;14.98;9.68;;;13.40;99.90;;;;;;5024304;28;20032;-74
2023/08/31 04:27:41;;;;;;;13.00;9.23;;;13.40;99.90;;;;;;5041183;28;20033;-74
2023/08/31 04:30:27;;;;;;;15.70;9.98;;;13.30;99.90;;;;;;5029191;28;20038;-74
2023/08/31 04:33:13;;;;;;;20.02;9.50;;;13.30;99.90;;;;;;5033359;28;20085;-74
2023/08/31 04:35:59;;;;;;;15.25;9.40;;;13.30;99.90;;;;;;5033075;28;20073;-74
2023/08/31 04:38:45;;;;;;;17.63;10.55;;;13.40;99.90;;;;;;5012134;28;20103;-74
2023/08/31 04:41:31;;;;;;;14.43;8.40;;;13.20;99.90;;;;;;5034371;28;20049;-74
2023/08/31 04:44:17;;;;;;;13.48;9.50;;;13.20;99.90;;;;;;5019888;28;20041;-75
2023/08/31 04:47:04;;;;;;;17.65;10.05;;;13.20;99.90;;;;;;5032713;28;20069;-74
2023/08/31 04:49:50;;;;;;;16.33;10.63;;;13.10;99.90;;;;;;5032586;28;20044;-75
2023/08/31 04:52:36;;;;;;;18.83;10.48;;;13.20;99.90;;;;;;5036085;28;20041;-74
2023/08/31 04:55:22;;;;;;;15.02;10.05;;;13.20;99.90;;;;;;5037662;28;20045;-74
2023/08/31 04:58:08;;;;;;;15.18;10.68;;;13.30;99.90;;;;;;5039165;28;20056;-74
2023/08/31 05:00:53;;;;;;;19.15;11.07;;;13.20;99.90;;;;;;5045203;28;20374;-74
2023/08/31 05:03:39;;;;;;;15.52;11.00;;;13.20;99.90;;;;;;5047934;28;20056;-74
2023/08/31 05:06:26;;;;;;;15.55;10.68;;;13.20;99.90;;;;;;5037122;28;20103;-74
2023/08/31 05:09:12;;;;;;;13.30;9.55;;;13.20;99.90;;;;;;5041701;28;20489;-74
2023/08/31 05:11:59;;;;;;;17.38;10.18;;;13.20;99.90;;;;;;5022538;28;20056;-74
2023/08/31 05:14:45;;;;;;;12.65;10.05;;;13.20;99.90;;;;;;5036830;28;20393;-74
2023/08/31 05:17:31;;;;;;;17.63;10.63;;;13.10;99.90;;;;;;5036840;28;20753;-74
2023/08/31 05:20:18;;;;;;;16.63;10.15;;;13.00;99.90;;;;;;5009626;28;20469;-71
2023/08/31 05:23:04;;;;;;;16.93;11.03;;;13.00;99.90;;;;;;5031939;28;20120;-71
2023/08/31 05:25:50;;;;;;;15.80;10.70;;;13.00;99.90;;;;;;5020965;28;20280;-71
2023/08/31 05:28:36;;;;;;;15.98;11.77;;;13.10;99.90;;;;;;5031430;28;20041;-71
2023/08/31 05:31:22;;;;;;;18.23;11.18;;;13.10;99.90;;;;;;5025837;28;20396;-72
2023/08/31 05:34:10;;;;;;;17.50;10.90;;;13.00;99.90;;;;;;5023514;28;20135;-71
2023/08/31 05:36:55;;;;;;;16.00;11.60;;;13.00;99.90;;;;;;5046574;28;20040;-72
2023/08/31 05:39:41;;;;;;;23.20;11.57;;;13.00;99.90;;;;;;5031910;28;20036;-72
2023/08/31 05:42:27;;;;;;;17.63;11.07;;;13.00;99.90;;;;;;5025617;28;20106;-71
2023/08/31 05:45:15;;;;;;;20.65;12.43;;;12.90;99.90;;;;;;5027192;28;20041;-71
2023/08/31 05:48:01;;;;;;;18.42;11.75;;;12.90;99.90;;;;;;5045216;28;20746;-71
2023/08/31 05:50:47;;;;;;;19.05;12.30;;;13.00;99.90;;;;;;5018654;28;20069;-71
2023/08/31 05:53:33;;;;;;;28.60;12.60;;;13.00;99.90;;;;;;5035654;28;20041;-72
2023/08/31 05:56:22;;;;;;;18.75;12.50;;;13.10;99.90;;;;;;5013648;28;20048;-71
2023/08/31 05:59:08;;;;;;;20.63;12.18;;;13.10;99.90;;;;;;5020342;28;20087;-71
2023/08/31 06:01:55;;;;;;;17.25;11.68;;;13.20;99.90;;;;;;5042424;28;20075;-71
2023/08/31 06:04:41;;;;;;;14.93;11.40;;;13.10;99.90;;;;;;5032386;28;20045;-71
2023/08/31 06:07:28;;;;;;;16.25;11.50;;;13.20;99.90;;;;;;5036465;28;20037;-71
2023/08/31 06:10:16;;;;;;;17.23;12.70;;;13.20;99.90;;;;;;5031647;28;20033;-72
2023/08/31 06:13:02;;;;;;;18.08;12.77;;;13.30;99.90;;;;;;5030865;28;20048;-71
2023/08/31 06:15:48;;;;;;;21.33;13.68;;;13.20;99.90;;;;;;5037619;28;20041;-74
2023/08/31 06:18:34;;;;;;;18.67;12.98;;;13.20;99.90;;;;;;5029516;28;20164;-73
2023/08/31 06:21:20;;;;;;;21.52;12.88;;;13.20;99.90;;;;;;5032130;28;20156;-74
2023/08/31 06:24:09;;;;;;;20.30;14.05;;;13.20;99.90;;;;;;5029722;28;20586;-73
2023/08/31 06:26:56;;;;;;;21.60;13.77;;;13.20;99.90;;;;;;5023428;28;20059;-74
2023/08/31 06:29:42;;;;;;;18.35;13.25;;;13.10;99.90;;;;;;5036932;28;20116;-74
2023/08/31 06:32:28;;;;;;;19.27;13.65;;;13.00;99.90;;;;;;5031471;28;20037;-74
2023/08/31 06:35:17;;;;;;;21.42;13.00;;;13.10;99.90;;;;;;5031797;28;20052;-74
2023/08/31 06:38:03;;;;;;;15.93;12.07;;;13.10;99.90;;;;;;5047486;28;20036;-74
2023/08/31 06:40:49;;;;;;;16.65;12.23;;;13.20;99.90;;;;;;5026508;28;20045;-74
2023/08/31 06:43:35;;;;;;;15.95;11.25;;;13.30;99.90;;;;;;5008326;28;20041;-74
2023/08/31 06:46:22;;;;;;;15.07;11.65;;;13.30;99.90;;;;;;5021086;28;20043;-74
2023/08/31 06:49:07;;;;;;;20.13;12.88;;;13.40;99.90;;;;;;5021223;28;20551;-74
2023/08/31 06:51:53;;;;;;;18.83;12.40;;;13.40;99.90;;;;;;5030930;28;20084;-74
2023/08/31 06:54:39;;;;;;;16.50;11.80;;;13.50;99.90;;;;;;5015887;28;20059;-73
2023/08/31 06:57:26;;;;;;;16.95;10.93;;;13.50;99.90;;;;;;5025563;28;20044;-74
2023/08/31 07:00:13;;;;;;;16.58;10.48;;;13.60;99.90;;;;;;5021183;28;20060;-73
2023/08/31 07:02:59;;;;;;;13.32;10.32;;;13.60;99.90;;;;;;5032444;28;20045;-73
2023/08/31 07:05:45;;;;;;;13.85;10.52;;;13.70;99.90;;;;;;5024747;28;20055;-76
2023/08/31 07:08:31;;;;;;;15.20;9.93;;;13.70;99.90;;;;;;5039191;28;20037;-75
2023/08/31 07:11:17;;;;;;;16.40;10.55;;;13.70;99.90;;;;;;5037658;28;20045;-74
2023/08/31 07:14:03;;;;;;;12.80;9.80;;;13.70;99.90;;;;;;5018963;28;20688;-74
2023/08/31 07:16:50;;;;;;;13.95;9.32;;;13.70;99.90;;;;;;5017765;28;20045;-74
2023/08/31 07:19:37;;;;;;;12.48;8.95;;;13.80;99.90;;;;;;5038257;28;20060;-74
2023/08/31 07:22:23;;;;;;;12.52;9.32;;;13.90;99.90;;;;;;5026898;28;20373;-74
2023/08/31 07:25:09;;;;;;;14.43;9.50;;;13.90;99.90;;;;;;5043829;28;20111;-74
2023/08/31 07:27:55;;;;;;;11.60;8.70;;;14.00;99.90;;;;;;5033708;28;20037;-74
2023/08/31 07:30:41;;;;;;;15.05;8.25;;;14.00;99.90;;;;;;5030753;28;20048;-74
2023/08/31 07:33:27;;;;;;;11.35;8.50;;;14.10;99.90;;;;;;5035188;28;20048;-74
2023/08/31 07:36:15;;;;;;;13.18;8.43;;;14.10;99.90;;;;;;5028436;28;20474;-74
2023/08/31 07:39:01;;;;;;;9.63;7.05;;;14.10;99.90;;;;;;5042839;28;20045;-74
2023/08/31 07:41:47;;;;;;;11.07;6.80;;;14.10;99.90;;;;;;5037454;28;20094;-74
2023/08/31 07:44:33;;;;;;;9.98;6.80;;;14.20;99.90;;;;;;5041851;28;20038;-74
2023/08/31 07:47:19;;;;;;;10.10;6.63;;;14.30;99.90;;;;;;5008304;28;20033;-74
2023/08/31 07:50:06;;;;;;;10.00;5.78;;;14.20;99.90;;;;;;5029336;28;20047;-73
2023/08/31 07:52:53;;;;;;;9.25;5.65;;;14.20;99.90;;;;;;5020476;28;20041;-71
2023/08/31 07:55:40;;;;;;;7.90;5.32;;;14.30;99.90;;;;;;5043267;28;20049;-71
2023/08/31 07:58:26;;;;;;;8.30;4.97;;;14.50;99.90;;;;;;5032567;28;20041;-73
2023/08/31 08:01:15;;;;;;;10.10;4.57;;;14.50;99.90;;;;;;5035141;28;20055;-71
2023/08/31 08:04:01;;;;;;;6.30;4.15;;;14.50;99.90;;;;;;5012590;28;20041;-74
2023/08/31 08:06:49;;;;;;;7.82;4.45;;;14.50;99.90;;;;;;5025864;28;20129;-74
2023/08/31 08:09:35;;;;;;;6.65;4.10;;;14.50;99.90;;;;;;5005322;28;20038;-74
2023/08/31 08:12:21;;;;;;;8.55;4.57;;;14.50;99.90;;;;;;5038427;28;20362;-74
2023/08/31 08:15:11;;;;;;;6.55;4.03;;;14.50;99.90;;;;;;5043549;28;20053;-73
2023/08/31 08:17:57;;;;;;;5.75;4.43;;;14.50;99.90;;;;;;5010671;28;20046;-71
2023/08/31 08:20:46;;;;;;;7.72;4.55;;;14.50;99.90;;;;;;5017232;28;20124;-71
2023/08/31 08:23:32;;;;;;;8.05;4.03;;;14.60;99.90;;;;;;5029018;28;20045;-71
2023/08/31 08:26:18;;;;;;;7.50;4.00;;;14.70;99.90;;;;;;5010128;28;20045;-73
2023/08/31 08:29:04;;;;;;;7.57;3.75;;;14.60;99.90;;;;;;5032592;28;20041;-73
2023/08/31 08:31:50;;;;;;;10.75;4.35;;;14.60;99.90;;;;;;5043843;28;20080;-73
2023/08/31 08:34:36;;;;;;;7.05;3.47;;;14.70;99.90;;;;;;5044455;28;20041;-74
2023/08/31 08:37:22;;;;;;;7.13;3.47;;;14.80;99.90;;;;;;5038624;28;20156;-74
2023/08/31 08:40:09;;;;;;;6.05;3.42;;;14.90;99.90;;;;;;5049860;28;20079;-74
2023/08/31 08:42:55;;;;;;;6.88;3.92;;;15.00;99.90;;;;;;5016693;28;20078;-75
2023/08/31 08:45:42;;;;;;;7.80;3.30;;;15.10;99.90;;;;;;5039912;28;20417;-74
2023/08/31 08:48:28;;;;;;;7.82;3.30;;;15.00;99.90;;;;;;5034254;28;20041;-74
2023/08/31 08:51:13;;;;;;;6.82;3.17;;;15.00;99.90;;;;;;5012946;28;20045;-72
2023/08/31 08:54:00;;;;;;;7.90;3.50;;;15.00;99.90;;;;;;5033164;28;20037;-71
2023/08/31 08:56:46;;;;;;;5.63;3.00;;;15.00;99.90;;;;;;5033709;28;20041;-71
2023/08/31 08:59:32;;;;;;;4.15;2.70;;;15.10;99.90;;;;;;5036980;28;20044;-73
2023/08/31 09:02:18;;;;;;;6.15;2.80;;;15.10;99.90;;;;;;5010426;28;20092;-72
2023/08/31 09:05:04;;;;;;;6.00;2.63;;;15.20;99.90;;;;;;5031325;28;20036;-73
2023/08/31 09:08:15;;;;;;;3.95;2.30;;;15.30;99.90;;;;;;5021169;28;20041;-73
2023/08/31 09:11:01;;;;;;;4.45;2.10;;;15.30;99.90;;;;;;5022821;28;20398;-73
2023/08/31 09:13:47;;;;;;;4.53;2.00;;;15.20;99.90;;;;;;5049569;28;20049;-74
2023/08/31 09:16:33;;;;;;;7.28;2.33;;;15.30;99.90;;;;;;5020496;28;20043;-74
2023/08/31 09:19:23;;;;;;;5.60;2.35;;;15.40;99.90;;;;;;5051021;28;20055;-73
2023/08/31 09:22:10;;;;;;;3.10;2.08;;;15.40;99.90;;;;;;5040808;28;20429;-73
2023/08/31 09:24:56;;;;;;;5.93;2.10;;;15.40;99.90;;;;;;5021188;28;20134;-74
2023/08/31 09:27:44;;;;;;;3.95;2.30;;;15.30;99.90;;;;;;5025304;28;20108;-74
2023/08/31 09:30:35;;;;;;;4.90;2.30;;;15.30;99.90;;;;;;5012730;28;20097;-73
2023/08/31 09:33:21;;;;;;;4.45;2.35;;;15.20;99.90;;;;;;5038245;28;20033;-75
2023/08/31 09:36:07;;;;;;;3.83;1.90;;;15.20;99.90;;;;;;5040320;28;20084;-74
2023/08/31 09:38:56;;;;;;;6.55;2.00;;;15.40;99.90;;;;;;5020519;28;20049;-74
2023/08/31 09:41:55;;;;;;;5.35;2.38;;;15.60;99.90;;;;;;5020301;28;20037;-74
2023/08/31 09:44:43;;;;;;;3.72;2.00;;;15.80;99.90;;;;;;5043222;28;20041;-74
2023/08/31 09:47:29;;;;;;;5.13;1.73;;;16.00;99.90;;;;;;5025619;28;20033;-76
2023/08/31 09:50:15;;;;;;;4.22;1.88;;;16.00;99.90;;;;;;5021179;28;20466;-75
2023/08/31 09:53:03;;;;;;;4.97;2.35;;;15.90;99.90;;;;;;5021059;28;20172;-74
2023/08/31 09:55:50;;;;;;;2.90;1.77;;;15.80;99.90;;;;;;5036008;28;20045;-74
2023/08/31 09:58:36;;;;;;;4.55;1.90;;;15.70;99.90;;;;;;5036676;28;20044;-73
2023/08/31 10:01:22;;;;;;;3.88;1.88;;;15.50;99.90;;;;;;5026964;28;20064;-74
2023/08/31 10:04:10;;;;;;;3.40;1.92;;;15.50;99.90;;;;;;5035299;28;20037;-74
2023/08/31 10:06:56;;;;;;;;;;;15.50;99.90;;;;;;5038994;28;20575;-74
2023/08/31 10:09:42;;;;;;;7.85;2.10;;;15.90;99.90;;;;;;5046400;28;19913;-74
2023/08/31 10:12:29;;;;;;;3.85;1.70;;;16.00;99.90;;;;;;5045388;28;20551;-74
2023/08/31 10:15:16;;;;;;;3.17;1.58;;;15.90;99.90;;;;;;5028101;28;20119;-74
2023/08/31 10:18:02;;;;;;;3.17;1.30;;;15.80;99.90;;;;;;5026023;28;20057;-74
2023/08/31 10:20:48;;;;;;;5.18;1.60;;;15.90;99.90;;;;;;5039274;28;20037;-74
2023/08/31 10:23:35;;;;;;;3.70;1.80;;;15.90;99.90;;;;;;5029353;28;20045;-74
2023/08/31 10:26:28;;;;;;;3.83;1.50;;;15.80;99.90;;;;;;5025601;28;20041;-74
2023/08/31 10:29:30;;;;;;;4.18;2.08;;;15.90;99.90;;;;;;5056730;28;20098;-74
2023/08/31 10:32:19;;;;;;;4.60;1.58;;;15.80;99.90;;;;;;5016233;28;20029;-74
2023/08/31 10:35:06;;;;;;;4.82;1.50;;;15.90;99.90;;;;;;5030332;28;20053;-74
2023/08/31 10:37:52;;;;;;;3.37;1.40;;;16.10;99.90;;;;;;5019763;28;20041;-74
2023/08/31 10:40:38;;;;;;;3.83;2.03;;;16.20;99.90;;;;;;5018740;28;20460;-74
2023/08/31 10:43:24;;;;;;;2.80;1.40;;;16.20;99.90;;;;;;5037814;28;20072;-76
2023/08/31 10:46:33;;;;;;;4.18;1.52;;;16.00;99.90;;;;;;5033719;28;20033;-74
2023/08/31 10:49:20;;;;;;;3.75;1.15;;;16.00;99.90;;;;;;5046414;28;20040;-74
2023/08/31 10:52:19;;;;;;;4.13;1.27;;;16.00;99.90;;;;;;5023666;28;20083;-74
2023/08/31 10:55:05;;;;;;;5.75;1.65;;;16.10;99.90;;;;;;5041409;28;20071;-74
2023/08/31 10:57:51;;;;;;;3.28;1.40;;;16.20;99.90;;;;;;5021221;28;20075;-74
2023/08/31 11:00:48;;;;;;;3.42;1.50;;;16.20;99.90;;;;;;5034618;28;20076;-74
2023/08/31 11:03:58;;;;;;;1.90;1.30;;;16.30;99.90;;;;;;5032529;28;20045;-74
2023/08/31 11:06:44;;;;;;;4.00;1.73;;;16.70;99.90;;;;;;5039656;28;20051;-74
2023/08/31 11:09:30;;;;;;;7.93;2.80;;;16.60;99.90;;;;;;5049232;28;20033;-74
2023/08/31 11:12:16;;;;;;;4.60;1.60;;;16.50;99.90;;;;;;5039314;28;20041;-74
2023/08/31 11:15:03;;;;;;;3.50;1.40;;;16.70;99.90;;;;;;5011098;28;20124;-74
2023/08/31 11:17:50;;;;;;;3.22;1.75;;;16.80;99.90;;;;;;5022543;28;20057;-74
2023/08/31 11:20:36;;;;;;;2.45;1.25;;;16.70;99.90;;;;;;5029259;28;20353;-74
2023/08/31 11:23:23;;;;;;;3.20;1.50;;;16.90;99.90;;;;;;5021003;28;20613;-73
2023/08/31 11:26:10;;;;;;;2.70;1.38;;;17.10;99.90;;;;;;5023803;28;20046;-74
2023/08/31 11:28:56;;;;;;;5.75;1.70;;;17.20;99.90;;;;;;5029188;28;20041;-74
2023/08/31 11:31:43;;;;;;;5.22;1.75;;;17.30;99.90;;;;;;5023668;28;20048;-74
2023/08/31 11:34:36;;;;;;;3.80;1.42;;;17.10;99.90;;;;;;5012831;28;20049;-74
2023/08/31 11:37:22;;;;;;;4.80;2.25;;;17.30;99.90;;;;;;5021642;28;20069;-74
2023/08/31 11:40:08;;;;;;;3.97;2.10;;;17.50;99.90;;;;;;5040057;28;20362;-74
2023/08/31 11:42:54;;;;;;;4.00;2.00;;;17.50;99.90;;;;;;5035120;28;20120;-74
2023/08/31 11:45:40;;;;;;;6.93;2.00;;;17.70;99.90;;;;;;5032671;28;20033;-74
2023/08/31 11:48:26;;;;;;;3.08;1.88;;;17.80;99.90;;;;;;5013768;28;20072;-73
2023/08/31 11:51:12;;;;;;;5.05;1.80;;;17.90;99.90;;;;;;5036092;28;20458;-70
2023/08/31 11:53:59;;;;;;;5.40;1.70;;;18.00;99.90;;;;;;5017994;28;20045;-71
2023/08/31 11:56:48;;;;;;;4.07;1.95;;;17.80;99.90;;;;;;5021923;28;20373;-71
2023/08/31 11:59:37;;;;;;;3.97;2.10;;;17.30;99.90;;;;;;5017216;28;20108;-71
2023/08/31 12:02:23;;;;;;;4.97;1.88;;;17.00;99.90;;;;;;5032568;28;20393;-71
2023/08/31 12:05:09;;;;;;;4.72;2.30;;;17.20;99.90;;;;;;5029647;28;20515;-70
2023/08/31 12:07:55;;;;;;;4.18;1.80;;;17.40;99.90;;;;;;5035405;28;20037;-71
2023/08/31 12:10:42;;;;;;;3.42;1.80;;;17.60;99.90;;;;;;5034073;28;20072;-71
2023/08/31 12:13:30;;;;;;;2.42;1.80;;;17.90;99.90;;;;;;5029356;28;20731;-71
2023/08/31 12:16:17;;;;;;;4.70;1.83;;;18.10;99.90;;;;;;5033352;28;20045;-71
2023/08/31 12:19:06;;;;;;;4.35;2.08;;;18.10;99.90;;;;;;5037009;28;20156;-71
2023/08/31 12:21:52;;;;;;;5.03;2.22;;;18.00;99.90;;;;;;5036362;28;20360;-71
2023/08/31 12:24:41;;;;;;;5.50;2.10;;;18.00;99.90;;;;;;5040975;28;20124;-71
2023/08/31 12:27:27;;;;;;;4.30;2.42;;;18.00;99.90;;;;;;5013885;28;20037;-71
2023/08/31 12:30:13;;;;;;;3.95;2.10;;;18.00;99.90;;;;;;5041077;28;20500;-71
2023/08/31 12:32:59;;;;;;;6.13;2.50;;;18.00;99.90;;;;;;5024612;28;20087;-71
2023/08/31 12:35:46;;;;;;;3.15;2.20;;;18.20;99.80;;;;;;5034576;28;20037;-71
2023/08/31 12:38:33;;;;;;;4.60;1.98;;;18.00;99.80;;;;;;5016002;28;20084;-71
2023/08/31 12:41:20;;;;;;;3.80;2.23;;;18.30;99.80;;;;;;5022013;28;20069;-71
2023/08/31 12:44:07;;;;;;;4.40;1.95;;;18.40;98.60;;;;;;5031484;28;20037;-71
2023/08/31 12:46:53;;;;;;;3.70;2.20;;;18.30;98.20;;;;;;5015119;28;20382;-71
2023/08/31 12:49:38;;;;;;;5.30;2.35;;;18.20;98.30;;;;;;5026194;28;20385;-71
2023/08/31 12:52:24;;;;;;;4.15;2.30;;;18.00;98.70;;;;;;5028680;28;20045;-71
2023/08/31 12:55:11;;;;;;;5.43;2.00;;;18.30;99.10;;;;;;5022225;28;20132;-71
2023/08/31 12:57:57;;;;;;;2.90;2.05;;;18.60;98.10;;;;;;5046569;28;20045;-71
2023/08/31 13:00:43;;;;;;;2.97;1.85;;;18.40;97.90;;;;;;5019939;28;20721;-71
2023/08/31 13:03:29;;;;;;;7.07;2.50;;;18.30;98.60;;;;;;5028516;28;20041;-72
2023/08/31 13:06:18;;;;;;;4.13;2.10;;;18.50;98.90;;;;;;5029218;28;20133;-72
2023/08/31 13:09:08;;;;;;;8.02;2.38;;;18.60;98.10;;;;;;5033088;28;20037;-71
2023/08/31 13:11:54;;;;;;;5.18;2.90;;;18.40;98.40;;;;;;5034201;28;20371;-72
2023/08/31 13:14:40;;;;;;;4.63;2.22;;;18.20;99.20;;;;;;5043227;28;20044;-72
2023/08/31 13:17:26;;;;;;;6.45;2.42;;;18.20;99.90;;;;;;5022503;28;20041;-71
2023/08/31 13:20:12;;;;;;;5.40;2.15;;;18.40;99.30;;;;;;5035229;28;20048;-71
2023/08/31 13:22:58;;;;;;;7.75;1.70;;;18.20;99.60;;;;;;5041737;28;20072;-71
2023/08/31 13:25:45;;;;;;;5.07;1.67;;;18.00;98.80;;;;;;5031435;28;20072;-71
2023/08/31 13:28:31;;;;;;;3.83;1.40;;;18.00;99.20;;;;;;5036038;28;20071;-71
2023/08/31 13:31:17;;;;;;;2.05;1.20;;;17.90;99.90;;;;;;5033394;28;20064;-71
2023/08/31 13:34:04;;;;;;;1.98;1.13;;;17.80;99.50;;;;;;5029941;28;20049;-71
2023/08/31 13:36:50;;;;;;;2.88;1.00;;;17.70;98.60;;;;;;5032727;28;20041;-71
2023/08/31 13:39:37;;;;;;;1.48;0.90;;;17.60;98.50;;;;;;5024495;28;20037;-71
2023/08/31 13:42:23;;;;;;;1.98;0.80;;;18.10;98.70;;;;;;5026640;28;20138;-71
2023/08/31 13:45:09;;;;;;;2.47;0.95;;;18.10;97.60;;;;;;5052290;28;20453;-71
2023/08/31 13:47:55;;;;;;;1.63;1.00;;;18.20;98.10;;;;;;5037542;28;20029;-71
2023/08/31 13:50:42;;;;;;;3.58;1.63;;;18.10;98.10;;;;;;5036267;28;20480;-71
2023/08/31 13:53:28;;;;;;;4.13;1.40;;;17.80;98.50;;;;;;5038504;28;20053;-71
2023/08/31 13:56:14;;;;;;;3.60;1.25;;;17.70;99.30;;;;;;5025836;28;20045;-71
2023/08/31 13:59:00;;;;;;;2.40;1.08;;;17.90;99.60;;;;;;5049321;28;20524;-71
2023/08/31 14:01:46;;;;;;;5.43;1.30;;;18.20;99.40;;;;;;5040889;28;20045;-71
2023/08/31 14:04:32;;;;;;;3.10;1.40;;;17.80;98.90;;;;;;5048610;28;20068;-74
2023/08/31 14:07:18;;;;;;;3.00;1.30;;;17.80;99.50;;;;;;5042013;28;20447;-74
2023/08/31 14:10:05;;;;;;;3.28;0.85;;;18.10;98.60;;;;;;5019907;28;20151;-74
2023/08/31 14:12:53;;;;;;;2.47;0.88;;;18.40;98.20;;;;;;5039377;28;20079;-74
2023/08/31 14:15:46;;;;;;;5.80;1.23;;;18.50;97.90;;;;;;5042043;28;20142;-74
2023/08/31 14:18:31;;;;;;;3.17;1.08;;;18.80;98.30;;;;;;5035706;28;20183;-74
2023/08/31 14:21:17;;;;;;;2.10;0.80;;;18.60;97.90;;;;;;5039983;28;20079;-76
2023/08/31 14:24:04;;;;;;;3.42;1.10;;;18.10;98.70;;;;;;5028572;28;20049;-74